sensor_id;sensor_type;location;lat;lon;timestamp;P1;durP1;ratioP1;P2;durP2;ratioP2
39918;SDS011;25589;51.552;13.424;2023-05-02T00:00:28;8.95;;;5.88;;
39918;SDS011;25589;51.552;13.424;2023-05-02T00:02:55;7.43;;;6.15;;
39918;SDS011;25589;51.552;13.424;2023-05-02T00:05:21;9.02;;;5.90;;
39918;SDS011;25589;51.552;13.424;2023-05-02T00:07:46;10.00;;;5.97;;
39918;SDS011;25589;51.552;13.424;2023-05-02T00:10:12;10.07;;;6.18;;
39918;SDS011;25589;51.552;13.424;2023-05-02T00:12:37;8.35;;;6.10;;
39918;SDS011;25589;51.552;13.424;2023-05-02T00:15:03;9.45;;;6.45;;
39918;SDS011;25589;51.552;13.424;2023-05-02T00:17:30;9.55;;;5.45;;
39918;SDS011;25589;51.552;13.424;2023-05-02T00:19:55;9.93;;;7.22;;
39918;SDS011;25589;51.552;13.424;2023-05-02T00:22:21;8.13;;;6.70;;
39918;SDS011;25589;51.552;13.424;2023-05-02T00:24:46;8.32;;;7.40;;
39918;SDS011;25589;51.552;13.424;2023-05-02T00:27:12;7.68;;;6.57;;
39918;SDS011;25589;51.552;13.424;2023-05-02T00:29:38;9.73;;;6.78;;
39918;SDS011;25589;51.552;13.424;2023-05-02T00:32:07;11.13;;;7.60;;
39918;SDS011;25589;51.552;13.424;2023-05-02T00:34:33;8.60;;;7.15;;
39918;SDS011;25589;51.552;13.424;2023-05-02T00:36:58;9.70;;;6.90;;
39918;SDS011;25589;51.552;13.424;2023-05-02T00:39:24;12.60;;;7.45;;
39918;SDS011;25589;51.552;13.424;2023-05-02T00:41:56;10.18;;;6.90;;
39918;SDS011;25589;51.552;13.424;2023-05-02T00:44:22;7.97;;;6.72;;
39918;SDS011;25589;51.552;13.424;2023-05-02T00:46:48;12.77;;;7.28;;
39918;SDS011;25589;51.552;13.424;2023-05-02T00:49:14;10.73;;;6.55;;
39918;SDS011;25589;51.552;13.424;2023-05-02T00:51:39;9.20;;;6.40;;
39918;SDS011;25589;51.552;13.424;2023-05-02T00:54:05;10.13;;;6.90;;
39918;SDS011;25589;51.552;13.424;2023-05-02T00:56:31;7.95;;;6.18;;
39918;SDS011;25589;51.552;13.424;2023-05-02T00:58:57;9.63;;;6.22;;
39918;SDS011;25589;51.552;13.424;2023-05-02T01:09:20;8.55;;;6.35;;
39918;SDS011;25589;51.552;13.424;2023-05-02T01:12:16;9.05;;;5.80;;
39918;SDS011;25589;51.552;13.424;2023-05-02T01:14:52;11.35;;;6.55;;
39918;SDS011;25589;51.552;13.424;2023-05-02T01:17:19;11.35;;;6.22;;
39918;SDS011;25589;51.552;13.424;2023-05-02T01:19:57;9.35;;;6.18;;
39918;SDS011;25589;51.552;13.424;2023-05-02T01:22:26;8.48;;;6.28;;
39918;SDS011;25589;51.552;13.424;2023-05-02T01:27:47;8.27;;;6.00;;
39918;SDS011;25589;51.552;13.424;2023-05-02T01:30:16;8.27;;;5.65;;
39918;SDS011;25589;51.552;13.424;2023-05-02T01:32:44;10.25;;;5.57;;
39918;SDS011;25589;51.552;13.424;2023-05-02T01:35:13;8.70;;;5.90;;
39918;SDS011;25589;51.552;13.424;2023-05-02T01:37:40;8.35;;;5.85;;
39918;SDS011;25589;51.552;13.424;2023-05-02T01:40:09;10.73;;;6.47;;
39918;SDS011;25589;51.552;13.424;2023-05-02T01:42:36;9.85;;;6.60;;
39918;SDS011;25589;51.552;13.424;2023-05-02T01:45:03;8.38;;;6.50;;
39918;SDS011;25589;51.552;13.424;2023-05-02T01:47:31;10.98;;;6.15;;
39918;SDS011;25589;51.552;13.424;2023-05-02T01:49:59;8.23;;;5.88;;
39918;SDS011;25589;51.552;13.424;2023-05-02T01:52:28;8.88;;;6.30;;
39918;SDS011;25589;51.552;13.424;2023-05-02T01:54:55;8.68;;;6.65;;
39918;SDS011;25589;51.552;13.424;2023-05-02T01:57:23;9.48;;;6.85;;
39918;SDS011;25589;51.552;13.424;2023-05-02T01:59:49;9.02;;;6.78;;
39918;SDS011;25589;51.552;13.424;2023-05-02T02:02:15;11.30;;;6.82;;
39918;SDS011;25589;51.552;13.424;2023-05-02T02:04:43;9.30;;;6.90;;
39918;SDS011;25589;51.552;13.424;2023-05-02T02:07:12;16.05;;;8.00;;
39918;SDS011;25589;51.552;13.424;2023-05-02T02:09:38;9.45;;;7.00;;
39918;SDS011;25589;51.552;13.424;2023-05-02T02:12:10;9.80;;;6.93;;
39918;SDS011;25589;51.552;13.424;2023-05-02T02:14:40;11.73;;;7.28;;
39918;SDS011;25589;51.552;13.424;2023-05-02T02:17:12;9.70;;;7.13;;
39918;SDS011;25589;51.552;13.424;2023-05-02T02:19:48;10.18;;;7.30;;
39918;SDS011;25589;51.552;13.424;2023-05-02T02:22:21;9.82;;;6.80;;
39918;SDS011;25589;51.552;13.424;2023-05-02T02:24:50;9.45;;;7.15;;
39918;SDS011;25589;51.552;13.424;2023-05-02T02:27:18;9.88;;;6.75;;
39918;SDS011;25589;51.552;13.424;2023-05-02T02:29:44;11.27;;;7.15;;
39918;SDS011;25589;51.552;13.424;2023-05-02T02:32:11;12.55;;;7.80;;
39918;SDS011;25589;51.552;13.424;2023-05-02T02:34:36;11.20;;;6.97;;
39918;SDS011;25589;51.552;13.424;2023-05-02T02:37:04;11.20;;;7.00;;
39918;SDS011;25589;51.552;13.424;2023-05-02T02:39:55;11.45;;;7.07;;
39918;SDS011;25589;51.552;13.424;2023-05-02T02:42:36;12.77;;;7.32;;
39918;SDS011;25589;51.552;13.424;2023-05-02T02:51:18;9.85;;;7.05;;
39918;SDS011;25589;51.552;13.424;2023-05-02T02:56:26;8.48;;;6.45;;
39918;SDS011;25589;51.552;13.424;2023-05-02T03:01:38;12.13;;;7.47;;
39918;SDS011;25589;51.552;13.424;2023-05-02T03:04:04;8.10;;;6.72;;
39918;SDS011;25589;51.552;13.424;2023-05-02T03:06:34;8.80;;;6.72;;
39918;SDS011;25589;51.552;13.424;2023-05-02T03:09:01;9.02;;;6.75;;
39918;SDS011;25589;51.552;13.424;2023-05-02T03:11:28;8.43;;;6.70;;
39918;SDS011;25589;51.552;13.424;2023-05-02T03:13:54;8.95;;;7.07;;
39918;SDS011;25589;51.552;13.424;2023-05-02T03:19:00;9.57;;;7.50;;
39918;SDS011;25589;51.552;13.424;2023-05-02T03:21:26;9.00;;;6.45;;
39918;SDS011;25589;51.552;13.424;2023-05-02T03:23:53;9.52;;;7.40;;
39918;SDS011;25589;51.552;13.424;2023-05-02T03:26:18;10.38;;;7.35;;
39918;SDS011;25589;51.552;13.424;2023-05-02T03:28:45;9.57;;;6.90;;
39918;SDS011;25589;51.552;13.424;2023-05-02T03:31:15;9.77;;;6.78;;
39918;SDS011;25589;51.552;13.424;2023-05-02T03:33:41;10.30;;;7.50;;
39918;SDS011;25589;51.552;13.424;2023-05-02T03:36:07;8.48;;;6.97;;
39918;SDS011;25589;51.552;13.424;2023-05-02T03:38:33;9.60;;;7.03;;
39918;SDS011;25589;51.552;13.424;2023-05-02T03:41:03;9.82;;;7.28;;
39918;SDS011;25589;51.552;13.424;2023-05-02T03:43:30;8.98;;;7.03;;
39918;SDS011;25589;51.552;13.424;2023-05-02T03:45:55;10.07;;;7.05;;
39918;SDS011;25589;51.552;13.424;2023-05-02T03:48:21;8.02;;;6.60;;
39918;SDS011;25589;51.552;13.424;2023-05-02T03:50:47;10.27;;;7.45;;
39918;SDS011;25589;51.552;13.424;2023-05-02T03:53:14;10.48;;;7.03;;
39918;SDS011;25589;51.552;13.424;2023-05-02T03:55:47;12.23;;;7.50;;
39918;SDS011;25589;51.552;13.424;2023-05-02T03:58:21;9.70;;;6.85;;
39918;SDS011;25589;51.552;13.424;2023-05-02T04:00:47;9.63;;;6.68;;
39918;SDS011;25589;51.552;13.424;2023-05-02T04:03:13;8.30;;;6.30;;
39918;SDS011;25589;51.552;13.424;2023-05-02T04:05:41;8.15;;;6.97;;
39918;SDS011;25589;51.552;13.424;2023-05-02T04:08:10;8.13;;;5.95;;
39918;SDS011;25589;51.552;13.424;2023-05-02T04:10:36;8.35;;;6.38;;
39918;SDS011;25589;51.552;13.424;2023-05-02T04:13:04;8.52;;;6.38;;
39918;SDS011;25589;51.552;13.424;2023-05-02T04:15:31;12.25;;;6.28;;
39918;SDS011;25589;51.552;13.424;2023-05-02T04:17:57;7.65;;;6.65;;
39918;SDS011;25589;51.552;13.424;2023-05-02T04:20:24;7.60;;;5.85;;
39918;SDS011;25589;51.552;13.424;2023-05-02T04:22:51;8.73;;;6.50;;
39918;SDS011;25589;51.552;13.424;2023-05-02T04:25:17;7.97;;;5.90;;
39918;SDS011;25589;51.552;13.424;2023-05-02T04:27:42;9.63;;;6.68;;
39918;SDS011;25589;51.552;13.424;2023-05-02T04:30:11;8.88;;;6.80;;
39918;SDS011;25589;51.552;13.424;2023-05-02T04:32:38;9.27;;;6.50;;
39918;SDS011;25589;51.552;13.424;2023-05-02T04:35:04;10.55;;;6.68;;
39918;SDS011;25589;51.552;13.424;2023-05-02T04:37:30;7.93;;;5.72;;
39918;SDS011;25589;51.552;13.424;2023-05-02T04:39:56;9.38;;;6.30;;
39918;SDS011;25589;51.552;13.424;2023-05-02T04:42:24;9.05;;;6.20;;
39918;SDS011;25589;51.552;13.424;2023-05-02T04:45:08;8.02;;;6.10;;
39918;SDS011;25589;51.552;13.424;2023-05-02T04:47:34;9.55;;;6.50;;
39918;SDS011;25589;51.552;13.424;2023-05-02T04:49:59;9.45;;;6.15;;
39918;SDS011;25589;51.552;13.424;2023-05-02T04:52:25;8.75;;;5.93;;
39918;SDS011;25589;51.552;13.424;2023-05-02T04:54:51;8.05;;;6.00;;
39918;SDS011;25589;51.552;13.424;2023-05-02T04:57:16;9.60;;;6.40;;
39918;SDS011;25589;51.552;13.424;2023-05-02T04:59:46;9.90;;;6.55;;
39918;SDS011;25589;51.552;13.424;2023-05-02T05:02:12;9.85;;;6.22;;
39918;SDS011;25589;51.552;13.424;2023-05-02T05:04:38;10.20;;;7.15;;
39918;SDS011;25589;51.552;13.424;2023-05-02T05:07:04;9.05;;;6.43;;
39918;SDS011;25589;51.552;13.424;2023-05-02T05:09:30;10.93;;;6.80;;
39918;SDS011;25589;51.552;13.424;2023-05-02T05:11:55;10.68;;;6.30;;
39918;SDS011;25589;51.552;13.424;2023-05-02T05:14:21;9.63;;;6.45;;
39918;SDS011;25589;51.552;13.424;2023-05-02T05:16:51;10.35;;;6.18;;
39918;SDS011;25589;51.552;13.424;2023-05-02T05:19:16;7.80;;;6.40;;
39918;SDS011;25589;51.552;13.424;2023-05-02T05:21:42;11.05;;;6.18;;
39918;SDS011;25589;51.552;13.424;2023-05-02T05:24:08;10.10;;;6.60;;
39918;SDS011;25589;51.552;13.424;2023-05-02T05:26:33;11.98;;;6.68;;
39918;SDS011;25589;51.552;13.424;2023-05-02T05:29:00;7.65;;;5.38;;
39918;SDS011;25589;51.552;13.424;2023-05-02T05:31:31;9.20;;;5.97;;
39918;SDS011;25589;51.552;13.424;2023-05-02T05:33:58;7.72;;;5.85;;
39918;SDS011;25589;51.552;13.424;2023-05-02T05:36:25;6.35;;;5.03;;
39918;SDS011;25589;51.552;13.424;2023-05-02T05:38:51;8.13;;;5.35;;
39918;SDS011;25589;51.552;13.424;2023-05-02T05:41:18;7.85;;;5.13;;
39918;SDS011;25589;51.552;13.424;2023-05-02T05:43:47;7.15;;;4.60;;
39918;SDS011;25589;51.552;13.424;2023-05-02T05:46:13;6.88;;;5.18;;
39918;SDS011;25589;51.552;13.424;2023-05-02T05:48:38;8.82;;;5.22;;
39918;SDS011;25589;51.552;13.424;2023-05-02T05:51:04;7.60;;;4.57;;
39918;SDS011;25589;51.552;13.424;2023-05-02T05:53:30;5.65;;;4.22;;
39918;SDS011;25589;51.552;13.424;2023-05-02T05:55:57;8.32;;;4.75;;
39918;SDS011;25589;51.552;13.424;2023-05-02T05:58:23;7.75;;;4.95;;
39918;SDS011;25589;51.552;13.424;2023-05-02T06:00:51;9.45;;;5.35;;
39918;SDS011;25589;51.552;13.424;2023-05-02T06:03:18;7.93;;;4.65;;
39918;SDS011;25589;51.552;13.424;2023-05-02T06:05:44;6.75;;;5.00;;
39918;SDS011;25589;51.552;13.424;2023-05-02T06:08:10;5.97;;;4.65;;
39918;SDS011;25589;51.552;13.424;2023-05-02T06:10:36;10.93;;;6.25;;
39918;SDS011;25589;51.552;13.424;2023-05-02T06:13:02;11.20;;;6.90;;
39918;SDS011;25589;51.552;13.424;2023-05-02T06:15:32;10.52;;;6.18;;
39918;SDS011;25589;51.552;13.424;2023-05-02T06:17:59;7.53;;;5.07;;
39918;SDS011;25589;51.552;13.424;2023-05-02T06:20:25;9.43;;;5.13;;
39918;SDS011;25589;51.552;13.424;2023-05-02T06:22:50;9.65;;;5.18;;
39918;SDS011;25589;51.552;13.424;2023-05-02T06:25:16;7.05;;;4.85;;
39918;SDS011;25589;51.552;13.424;2023-05-02T06:27:41;6.97;;;4.70;;
39918;SDS011;25589;51.552;13.424;2023-05-02T06:30:07;6.05;;;4.78;;
39918;SDS011;25589;51.552;13.424;2023-05-02T06:32:33;8.23;;;4.60;;
39918;SDS011;25589;51.552;13.424;2023-05-02T06:34:58;7.90;;;4.75;;
39918;SDS011;25589;51.552;13.424;2023-05-02T06:37:24;11.15;;;5.03;;
39918;SDS011;25589;51.552;13.424;2023-05-02T06:39:49;8.23;;;5.13;;
39918;SDS011;25589;51.552;13.424;2023-05-02T06:42:15;8.48;;;4.68;;
39918;SDS011;25589;51.552;13.424;2023-05-02T06:44:41;8.25;;;5.18;;
39918;SDS011;25589;51.552;13.424;2023-05-02T06:47:06;8.40;;;5.43;;
39918;SDS011;25589;51.552;13.424;2023-05-02T06:49:32;11.85;;;4.93;;
39918;SDS011;25589;51.552;13.424;2023-05-02T06:51:57;11.77;;;5.60;;
39918;SDS011;25589;51.552;13.424;2023-05-02T06:54:23;7.45;;;4.78;;
39918;SDS011;25589;51.552;13.424;2023-05-02T06:56:49;7.32;;;5.32;;
39918;SDS011;25589;51.552;13.424;2023-05-02T06:59:15;9.80;;;5.35;;
39918;SDS011;25589;51.552;13.424;2023-05-02T07:01:42;7.07;;;4.95;;
39918;SDS011;25589;51.552;13.424;2023-05-02T07:04:08;11.68;;;6.25;;
39918;SDS011;25589;51.552;13.424;2023-05-02T07:06:33;10.20;;;5.30;;
39918;SDS011;25589;51.552;13.424;2023-05-02T07:08:59;7.10;;;4.75;;
39918;SDS011;25589;51.552;13.424;2023-05-02T07:11:24;7.88;;;5.60;;
39918;SDS011;25589;51.552;13.424;2023-05-02T07:13:51;8.77;;;5.60;;
39918;SDS011;25589;51.552;13.424;2023-05-02T07:16:17;7.05;;;4.88;;
39918;SDS011;25589;51.552;13.424;2023-05-02T07:18:43;7.43;;;5.10;;
39918;SDS011;25589;51.552;13.424;2023-05-02T07:21:11;8.85;;;5.50;;
39918;SDS011;25589;51.552;13.424;2023-05-02T07:23:37;7.03;;;4.78;;
39918;SDS011;25589;51.552;13.424;2023-05-02T07:26:02;7.50;;;5.20;;
39918;SDS011;25589;51.552;13.424;2023-05-02T07:28:31;8.07;;;4.93;;
39918;SDS011;25589;51.552;13.424;2023-05-02T07:30:57;10.02;;;5.25;;
39918;SDS011;25589;51.552;13.424;2023-05-02T07:33:23;7.97;;;4.97;;
39918;SDS011;25589;51.552;13.424;2023-05-02T07:35:49;7.18;;;5.35;;
39918;SDS011;25589;51.552;13.424;2023-05-02T07:38:15;9.75;;;5.40;;
39918;SDS011;25589;51.552;13.424;2023-05-02T07:40:41;8.60;;;5.28;;
39918;SDS011;25589;51.552;13.424;2023-05-02T07:43:07;7.55;;;4.25;;
39918;SDS011;25589;51.552;13.424;2023-05-02T07:45:33;6.47;;;4.75;;
39918;SDS011;25589;51.552;13.424;2023-05-02T07:47:59;9.70;;;4.80;;
39918;SDS011;25589;51.552;13.424;2023-05-02T07:50:25;10.88;;;5.30;;
39918;SDS011;25589;51.552;13.424;2023-05-02T07:52:51;8.02;;;5.30;;
39918;SDS011;25589;51.552;13.424;2023-05-02T07:55:18;7.05;;;5.10;;
39918;SDS011;25589;51.552;13.424;2023-05-02T07:57:44;8.32;;;4.90;;
39918;SDS011;25589;51.552;13.424;2023-05-02T08:00:10;6.68;;;4.35;;
39918;SDS011;25589;51.552;13.424;2023-05-02T08:02:40;8.63;;;4.55;;
39918;SDS011;25589;51.552;13.424;2023-05-02T08:05:06;8.35;;;4.85;;
39918;SDS011;25589;51.552;13.424;2023-05-02T08:07:32;8.73;;;4.70;;
39918;SDS011;25589;51.552;13.424;2023-05-02T08:09:59;7.55;;;4.45;;
39918;SDS011;25589;51.552;13.424;2023-05-02T08:12:25;10.93;;;4.53;;
39918;SDS011;25589;51.552;13.424;2023-05-02T08:14:50;7.88;;;5.00;;
39918;SDS011;25589;51.552;13.424;2023-05-02T08:17:19;14.63;;;5.60;;
39918;SDS011;25589;51.552;13.424;2023-05-02T08:19:45;11.25;;;5.72;;
39918;SDS011;25589;51.552;13.424;2023-05-02T08:22:11;8.93;;;5.68;;
39918;SDS011;25589;51.552;13.424;2023-05-02T08:24:36;8.40;;;6.40;;
39918;SDS011;25589;51.552;13.424;2023-05-02T08:27:02;6.93;;;5.50;;
39918;SDS011;25589;51.552;13.424;2023-05-02T08:29:28;11.23;;;5.68;;
39918;SDS011;25589;51.552;13.424;2023-05-02T08:31:55;8.40;;;5.88;;
39918;SDS011;25589;51.552;13.424;2023-05-02T08:34:20;7.40;;;5.65;;
39918;SDS011;25589;51.552;13.424;2023-05-02T08:36:46;8.50;;;5.72;;
39918;SDS011;25589;51.552;13.424;2023-05-02T08:39:12;10.05;;;6.30;;
39918;SDS011;25589;51.552;13.424;2023-05-02T08:41:37;7.93;;;5.53;;
39918;SDS011;25589;51.552;13.424;2023-05-02T08:44:04;8.18;;;5.32;;
39918;SDS011;25589;51.552;13.424;2023-05-02T08:46:33;7.35;;;5.03;;
39918;SDS011;25589;51.552;13.424;2023-05-02T08:49:00;10.20;;;5.82;;
39918;SDS011;25589;51.552;13.424;2023-05-02T08:51:27;12.45;;;6.55;;
39918;SDS011;25589;51.552;13.424;2023-05-02T08:53:56;10.27;;;6.15;;
39918;SDS011;25589;51.552;13.424;2023-05-02T08:56:23;8.73;;;5.45;;
39918;SDS011;25589;51.552;13.424;2023-05-02T08:58:49;9.15;;;6.20;;
39918;SDS011;25589;51.552;13.424;2023-05-02T09:01:16;10.10;;;6.40;;
39918;SDS011;25589;51.552;13.424;2023-05-02T09:03:44;9.25;;;6.57;;
39918;SDS011;25589;51.552;13.424;2023-05-02T09:06:11;10.85;;;6.45;;
39918;SDS011;25589;51.552;13.424;2023-05-02T09:08:42;12.60;;;7.22;;
39918;SDS011;25589;51.552;13.424;2023-05-02T09:11:09;12.27;;;7.00;;
39918;SDS011;25589;51.552;13.424;2023-05-02T09:13:36;10.95;;;7.35;;
39918;SDS011;25589;51.552;13.424;2023-05-02T09:16:04;8.70;;;6.07;;
39918;SDS011;25589;51.552;13.424;2023-05-02T09:18:43;10.75;;;6.15;;
39918;SDS011;25589;51.552;13.424;2023-05-02T09:21:11;10.05;;;5.82;;
39918;SDS011;25589;51.552;13.424;2023-05-02T09:23:40;8.65;;;5.88;;
39918;SDS011;25589;51.552;13.424;2023-05-02T09:26:21;9.65;;;6.53;;
39918;SDS011;25589;51.552;13.424;2023-05-02T09:28:47;8.23;;;6.00;;
39918;SDS011;25589;51.552;13.424;2023-05-02T09:31:18;9.88;;;6.60;;
39918;SDS011;25589;51.552;13.424;2023-05-02T09:33:44;11.30;;;5.93;;
39918;SDS011;25589;51.552;13.424;2023-05-02T09:36:12;8.90;;;6.07;;
39918;SDS011;25589;51.552;13.424;2023-05-02T09:38:39;9.10;;;6.28;;
39918;SDS011;25589;51.552;13.424;2023-05-02T09:41:05;10.77;;;6.47;;
39918;SDS011;25589;51.552;13.424;2023-05-02T09:43:31;9.88;;;6.55;;
39918;SDS011;25589;51.552;13.424;2023-05-02T09:45:58;10.38;;;6.47;;
39918;SDS011;25589;51.552;13.424;2023-05-02T09:48:25;11.48;;;6.18;;
39918;SDS011;25589;51.552;13.424;2023-05-02T09:50:52;7.93;;;5.63;;
39918;SDS011;25589;51.552;13.424;2023-05-02T09:53:18;11.85;;;7.20;;
39918;SDS011;25589;51.552;13.424;2023-05-02T09:55:44;8.82;;;6.82;;
39918;SDS011;25589;51.552;13.424;2023-05-02T09:58:20;10.60;;;7.05;;
39918;SDS011;25589;51.552;13.424;2023-05-02T10:00:47;9.23;;;6.50;;
39918;SDS011;25589;51.552;13.424;2023-05-02T10:03:15;16.20;;;7.10;;
39918;SDS011;25589;51.552;13.424;2023-05-02T10:05:42;12.10;;;8.07;;
39918;SDS011;25589;51.552;13.424;2023-05-02T10:08:09;11.95;;;8.13;;
39918;SDS011;25589;51.552;13.424;2023-05-02T10:10:36;11.55;;;7.28;;
39918;SDS011;25589;51.552;13.424;2023-05-02T10:15:43;11.18;;;7.60;;
39918;SDS011;25589;51.552;13.424;2023-05-02T10:18:12;12.02;;;7.63;;
39918;SDS011;25589;51.552;13.424;2023-05-02T10:21:27;10.70;;;7.63;;
39918;SDS011;25589;51.552;13.424;2023-05-02T10:23:32;10.57;;;7.60;;
39918;SDS011;25589;51.552;13.424;2023-05-02T10:25:58;12.90;;;8.32;;
39918;SDS011;25589;51.552;13.424;2023-05-02T10:28:27;13.70;;;8.73;;
39918;SDS011;25589;51.552;13.424;2023-05-02T10:30:54;13.05;;;7.93;;
39918;SDS011;25589;51.552;13.424;2023-05-02T10:33:20;12.00;;;7.97;;
39918;SDS011;25589;51.552;13.424;2023-05-02T10:35:46;12.90;;;8.07;;
39918;SDS011;25589;51.552;13.424;2023-05-02T10:38:16;12.95;;;7.28;;
39918;SDS011;25589;51.552;13.424;2023-05-02T10:40:52;14.30;;;8.70;;
39918;SDS011;25589;51.552;13.424;2023-05-02T10:43:23;14.60;;;9.45;;
39918;SDS011;25589;51.552;13.424;2023-05-02T10:45:51;13.52;;;8.75;;
39918;SDS011;25589;51.552;13.424;2023-05-02T10:48:18;16.55;;;8.23;;
39918;SDS011;25589;51.552;13.424;2023-05-02T10:50:54;13.18;;;7.80;;
39918;SDS011;25589;51.552;13.424;2023-05-02T10:53:32;12.43;;;8.32;;
39918;SDS011;25589;51.552;13.424;2023-05-02T10:58:40;14.85;;;8.98;;
39918;SDS011;25589;51.552;13.424;2023-05-02T11:04:03;13.98;;;9.27;;
39918;SDS011;25589;51.552;13.424;2023-05-02T11:06:36;15.20;;;8.80;;
39918;SDS011;25589;51.552;13.424;2023-05-02T11:11:54;13.70;;;8.43;;
39918;SDS011;25589;51.552;13.424;2023-05-02T11:19:28;12.82;;;8.52;;
39918;SDS011;25589;51.552;13.424;2023-05-02T11:24:52;12.90;;;9.07;;
39918;SDS011;25589;51.552;13.424;2023-05-02T11:32:24;12.77;;;8.82;;
39918;SDS011;25589;51.552;13.424;2023-05-02T11:35:16;12.63;;;8.25;;
39918;SDS011;25589;51.552;13.424;2023-05-02T11:37:53;10.52;;;7.88;;
39918;SDS011;25589;51.552;13.424;2023-05-02T11:42:49;13.73;;;8.07;;
39918;SDS011;25589;51.552;13.424;2023-05-02T11:45:15;13.27;;;8.48;;
39918;SDS011;25589;51.552;13.424;2023-05-02T11:47:41;13.40;;;8.80;;
39918;SDS011;25589;51.552;13.424;2023-05-02T11:50:07;13.48;;;8.60;;
39918;SDS011;25589;51.552;13.424;2023-05-02T11:52:40;12.05;;;8.13;;
39918;SDS011;25589;51.552;13.424;2023-05-02T11:55:09;12.90;;;8.20;;
39918;SDS011;25589;51.552;13.424;2023-05-02T11:57:36;14.70;;;9.45;;
39918;SDS011;25589;51.552;13.424;2023-05-02T12:00:02;12.52;;;8.07;;
39918;SDS011;25589;51.552;13.424;2023-05-02T12:02:40;10.52;;;7.85;;
39918;SDS011;25589;51.552;13.424;2023-05-02T12:05:08;11.60;;;7.85;;
39918;SDS011;25589;51.552;13.424;2023-05-02T12:07:41;10.35;;;7.00;;
39918;SDS011;25589;51.552;13.424;2023-05-02T12:10:13;11.93;;;7.47;;
39918;SDS011;25589;51.552;13.424;2023-05-02T12:12:42;9.90;;;7.45;;
39918;SDS011;25589;51.552;13.424;2023-05-02T12:15:09;8.90;;;6.57;;
39918;SDS011;25589;51.552;13.424;2023-05-02T12:17:39;8.05;;;6.28;;
39918;SDS011;25589;51.552;13.424;2023-05-02T12:20:07;8.90;;;6.68;;
39918;SDS011;25589;51.552;13.424;2023-05-02T12:22:34;7.68;;;5.70;;
39918;SDS011;25589;51.552;13.424;2023-05-02T12:25:00;8.43;;;6.05;;
39918;SDS011;25589;51.552;13.424;2023-05-02T12:27:27;8.23;;;5.35;;
39918;SDS011;25589;51.552;13.424;2023-05-02T12:29:53;11.48;;;6.28;;
39918;SDS011;25589;51.552;13.424;2023-05-02T12:32:31;9.73;;;5.78;;
39918;SDS011;25589;51.552;13.424;2023-05-02T12:34:58;8.82;;;5.30;;
39918;SDS011;25589;51.552;13.424;2023-05-02T12:37:25;7.65;;;4.05;;
39918;SDS011;25589;51.552;13.424;2023-05-02T12:39:52;7.85;;;5.97;;
39918;SDS011;25589;51.552;13.424;2023-05-02T12:42:20;8.68;;;5.90;;
39918;SDS011;25589;51.552;13.424;2023-05-02T12:44:47;8.10;;;5.47;;
39918;SDS011;25589;51.552;13.424;2023-05-02T12:47:16;6.70;;;4.95;;
39918;SDS011;25589;51.552;13.424;2023-05-02T12:49:52;11.23;;;5.68;;
39918;SDS011;25589;51.552;13.424;2023-05-02T12:55:16;8.02;;;5.35;;
39918;SDS011;25589;51.552;13.424;2023-05-02T12:57:48;7.28;;;5.03;;
39918;SDS011;25589;51.552;13.424;2023-05-02T13:00:27;7.18;;;5.10;;
39918;SDS011;25589;51.552;13.424;2023-05-02T13:02:53;7.88;;;4.20;;
39918;SDS011;25589;51.552;13.424;2023-05-02T13:05:19;4.82;;;3.80;;
39918;SDS011;25589;51.552;13.424;2023-05-02T13:07:44;6.13;;;4.28;;
39918;SDS011;25589;51.552;13.424;2023-05-02T13:10:10;7.47;;;4.63;;
39918;SDS011;25589;51.552;13.424;2023-05-02T13:12:36;6.75;;;4.18;;
39918;SDS011;25589;51.552;13.424;2023-05-02T13:15:06;6.68;;;4.45;;
39918;SDS011;25589;51.552;13.424;2023-05-02T13:17:33;9.10;;;4.45;;
39918;SDS011;25589;51.552;13.424;2023-05-02T13:19:59;8.75;;;4.53;;
39918;SDS011;25589;51.552;13.424;2023-05-02T13:22:25;7.80;;;4.65;;
39918;SDS011;25589;51.552;13.424;2023-05-02T13:24:51;8.13;;;4.57;;
39918;SDS011;25589;51.552;13.424;2023-05-02T13:27:17;6.38;;;3.85;;
39918;SDS011;25589;51.552;13.424;2023-05-02T13:29:43;7.05;;;5.07;;
39918;SDS011;25589;51.552;13.424;2023-05-02T13:32:09;6.97;;;5.05;;
39918;SDS011;25589;51.552;13.424;2023-05-02T13:34:35;8.38;;;4.57;;
39918;SDS011;25589;51.552;13.424;2023-05-02T13:37:01;9.98;;;4.80;;
39918;SDS011;25589;51.552;13.424;2023-05-02T13:39:26;6.53;;;4.50;;
39918;SDS011;25589;51.552;13.424;2023-05-02T13:41:53;6.25;;;4.03;;
39918;SDS011;25589;51.552;13.424;2023-05-02T13:44:18;6.15;;;4.13;;
39918;SDS011;25589;51.552;13.424;2023-05-02T13:46:44;8.05;;;4.63;;
39918;SDS011;25589;51.552;13.424;2023-05-02T13:49:09;7.07;;;4.97;;
39918;SDS011;25589;51.552;13.424;2023-05-02T13:51:35;7.05;;;4.20;;
39918;SDS011;25589;51.552;13.424;2023-05-02T13:54:01;8.35;;;4.88;;
39918;SDS011;25589;51.552;13.424;2023-05-02T13:56:26;7.93;;;4.90;;
39918;SDS011;25589;51.552;13.424;2023-05-02T13:58:52;6.82;;;4.25;;
39918;SDS011;25589;51.552;13.424;2023-05-02T14:01:18;7.28;;;4.40;;
39918;SDS011;25589;51.552;13.424;2023-05-02T14:03:43;7.13;;;4.35;;
39918;SDS011;25589;51.552;13.424;2023-05-02T14:06:09;6.68;;;3.92;;
39918;SDS011;25589;51.552;13.424;2023-05-02T14:08:34;5.95;;;4.03;;
39918;SDS011;25589;51.552;13.424;2023-05-02T14:11:00;5.07;;;3.78;;
39918;SDS011;25589;51.552;13.424;2023-05-02T14:13:26;9.50;;;3.95;;
39918;SDS011;25589;51.552;13.424;2023-05-02T14:15:54;5.35;;;4.22;;
39918;SDS011;25589;51.552;13.424;2023-05-02T14:18:20;8.00;;;4.32;;
39918;SDS011;25589;51.552;13.424;2023-05-02T14:20:45;9.55;;;4.78;;
39918;SDS011;25589;51.552;13.424;2023-05-02T14:23:11;5.78;;;3.67;;
39918;SDS011;25589;51.552;13.424;2023-05-02T14:25:37;6.88;;;3.97;;
39918;SDS011;25589;51.552;13.424;2023-05-02T14:28:03;6.60;;;3.53;;
39918;SDS011;25589;51.552;13.424;2023-05-02T14:30:29;7.78;;;4.28;;
39918;SDS011;25589;51.552;13.424;2023-05-02T14:32:55;8.35;;;4.05;;
39918;SDS011;25589;51.552;13.424;2023-05-02T14:35:21;8.13;;;3.85;;
39918;SDS011;25589;51.552;13.424;2023-05-02T14:37:47;6.82;;;3.95;;
39918;SDS011;25589;51.552;13.424;2023-05-02T14:40:12;7.38;;;3.40;;
39918;SDS011;25589;51.552;13.424;2023-05-02T14:42:39;6.38;;;3.60;;
39918;SDS011;25589;51.552;13.424;2023-05-02T14:45:05;5.25;;;3.45;;
39918;SDS011;25589;51.552;13.424;2023-05-02T14:47:32;5.18;;;3.55;;
39918;SDS011;25589;51.552;13.424;2023-05-02T14:49:58;5.93;;;3.30;;
39918;SDS011;25589;51.552;13.424;2023-05-02T14:52:24;6.80;;;3.33;;
39918;SDS011;25589;51.552;13.424;2023-05-02T14:54:50;5.72;;;3.67;;
39918;SDS011;25589;51.552;13.424;2023-05-02T14:57:17;7.43;;;2.97;;
39918;SDS011;25589;51.552;13.424;2023-05-02T14:59:42;8.10;;;3.63;;
39918;SDS011;25589;51.552;13.424;2023-05-02T15:02:08;6.75;;;3.25;;
39918;SDS011;25589;51.552;13.424;2023-05-02T15:04:34;6.57;;;3.47;;
39918;SDS011;25589;51.552;13.424;2023-05-02T15:06:59;6.05;;;3.65;;
39918;SDS011;25589;51.552;13.424;2023-05-02T15:09:25;8.82;;;3.25;;
39918;SDS011;25589;51.552;13.424;2023-05-02T15:11:52;7.68;;;3.63;;
39918;SDS011;25589;51.552;13.424;2023-05-02T15:14:17;4.85;;;2.67;;
39918;SDS011;25589;51.552;13.424;2023-05-02T15:16:43;4.22;;;3.08;;
39918;SDS011;25589;51.552;13.424;2023-05-02T15:19:09;8.38;;;3.22;;
39918;SDS011;25589;51.552;13.424;2023-05-02T15:21:35;7.10;;;3.17;;
39918;SDS011;25589;51.552;13.424;2023-05-02T15:24:01;7.03;;;3.28;;
39918;SDS011;25589;51.552;13.424;2023-05-02T15:26:27;6.63;;;3.08;;